sensor_id;sensor_type;location;lat;lon;timestamp;P1;durP1;ratioP1;P2;durP2;ratioP2
9737;SDS011;4908;47.446;13.900;2023-06-10T00:00:27;4.43;;;4.13;;
9737;SDS011;4908;47.446;13.900;2023-06-10T00:02:58;4.43;;;4.13;;
9737;SDS011;4908;47.446;13.900;2023-06-10T00:05:25;6.03;;;4.90;;
9737;SDS011;4908;47.446;13.900;2023-06-10T00:07:55;5.00;;;4.60;;
9737;SDS011;4908;47.446;13.900;2023-06-10T00:10:22;5.47;;;5.03;;
9737;SDS011;4908;47.446;13.900;2023-06-10T00:12:49;5.37;;;4.87;;
9737;SDS011;4908;47.446;13.900;2023-06-10T00:15:16;9.50;;;5.50;;
9737;SDS011;4908;47.446;13.900;2023-06-10T00:17:44;5.43;;;4.80;;
9737;SDS011;4908;47.446;13.900;2023-06-10T00:20:12;6.10;;;5.50;;
9737;SDS011;4908;47.446;13.900;2023-06-10T00:22:39;5.80;;;4.80;;
9737;SDS011;4908;47.446;13.900;2023-06-10T00:25:10;6.90;;;5.03;;
9737;SDS011;4908;47.446;13.900;2023-06-10T00:27:37;4.90;;;4.50;;
9737;SDS011;4908;47.446;13.900;2023-06-10T00:30:04;6.07;;;5.50;;
9737;SDS011;4908;47.446;13.900;2023-06-10T00:32:33;6.63;;;5.20;;
9737;SDS011;4908;47.446;13.900;2023-06-10T00:35:01;5.97;;;5.37;;
9737;SDS011;4908;47.446;13.900;2023-06-10T00:37:31;5.10;;;4.70;;
9737;SDS011;4908;47.446;13.900;2023-06-10T00:40:00;5.80;;;5.30;;
9737;SDS011;4908;47.446;13.900;2023-06-10T00:42:27;4.50;;;4.20;;
9737;SDS011;4908;47.446;13.900;2023-06-10T00:44:53;4.27;;;3.97;;
9737;SDS011;4908;47.446;13.900;2023-06-10T00:47:21;4.70;;;4.30;;
9737;SDS011;4908;47.446;13.900;2023-06-10T00:49:48;4.80;;;4.47;;
9737;SDS011;4908;47.446;13.900;2023-06-10T00:52:16;4.73;;;4.33;;
9737;SDS011;4908;47.446;13.900;2023-06-10T00:54:47;5.03;;;4.63;;
9737;SDS011;4908;47.446;13.900;2023-06-10T00:57:14;4.10;;;3.90;;
9737;SDS011;4908;47.446;13.900;2023-06-10T00:59:41;4.93;;;4.63;;
9737;SDS011;4908;47.446;13.900;2023-06-10T01:02:11;4.13;;;3.83;;
9737;SDS011;4908;47.446;13.900;2023-06-10T01:04:37;4.10;;;3.90;;
9737;SDS011;4908;47.446;13.900;2023-06-10T01:07:06;5.10;;;4.80;;
9737;SDS011;4908;47.446;13.900;2023-06-10T01:09:41;4.67;;;4.37;;
9737;SDS011;4908;47.446;13.900;2023-06-10T01:12:19;3.43;;;3.23;;
9737;SDS011;4908;47.446;13.900;2023-06-10T01:14:53;5.07;;;4.67;;
9737;SDS011;4908;47.446;13.900;2023-06-10T01:17:21;4.70;;;4.40;;
9737;SDS011;4908;47.446;13.900;2023-06-10T01:19:52;4.30;;;4.00;;
9737;SDS011;4908;47.446;13.900;2023-06-10T01:22:22;4.93;;;4.17;;
9737;SDS011;4908;47.446;13.900;2023-06-10T01:24:51;4.33;;;4.13;;
9737;SDS011;4908;47.446;13.900;2023-06-10T01:27:19;4.87;;;4.57;;
9737;SDS011;4908;47.446;13.900;2023-06-10T01:29:50;4.60;;;4.30;;
9737;SDS011;4908;47.446;13.900;2023-06-10T01:32:22;4.70;;;4.27;;
9737;SDS011;4908;47.446;13.900;2023-06-10T01:34:55;4.90;;;4.37;;
9737;SDS011;4908;47.446;13.900;2023-06-10T01:37:24;6.23;;;5.50;;
9737;SDS011;4908;47.446;13.900;2023-06-10T01:39:54;6.10;;;5.50;;
9737;SDS011;4908;47.446;13.900;2023-06-10T01:42:22;5.03;;;4.63;;
9737;SDS011;4908;47.446;13.900;2023-06-10T01:44:50;5.53;;;5.10;;
9737;SDS011;4908;47.446;13.900;2023-06-10T01:47:17;5.47;;;5.00;;
9737;SDS011;4908;47.446;13.900;2023-06-10T01:49:44;5.10;;;4.70;;
9737;SDS011;4908;47.446;13.900;2023-06-10T01:52:11;5.20;;;4.80;;
9737;SDS011;4908;47.446;13.900;2023-06-10T01:54:40;5.67;;;5.17;;
9737;SDS011;4908;47.446;13.900;2023-06-10T01:57:07;4.70;;;4.30;;
9737;SDS011;4908;47.446;13.900;2023-06-10T01:59:34;5.67;;;5.00;;
9737;SDS011;4908;47.446;13.900;2023-06-10T02:02:01;6.30;;;4.97;;
9737;SDS011;4908;47.446;13.900;2023-06-10T02:04:28;5.43;;;5.03;;
9737;SDS011;4908;47.446;13.900;2023-06-10T02:06:55;6.20;;;5.40;;
9737;SDS011;4908;47.446;13.900;2023-06-10T02:09:22;6.00;;;5.20;;
9737;SDS011;4908;47.446;13.900;2023-06-10T02:11:50;5.10;;;4.70;;
9737;SDS011;4908;47.446;13.900;2023-06-10T02:14:17;5.43;;;5.03;;
9737;SDS011;4908;47.446;13.900;2023-06-10T02:16:43;5.33;;;4.93;;
9737;SDS011;4908;47.446;13.900;2023-06-10T02:19:11;4.87;;;4.47;;
9737;SDS011;4908;47.446;13.900;2023-06-10T02:21:38;5.93;;;4.97;;
9737;SDS011;4908;47.446;13.900;2023-06-10T02:24:05;4.90;;;4.57;;
9737;SDS011;4908;47.446;13.900;2023-06-10T02:26:33;4.97;;;4.57;;
9737;SDS011;4908;47.446;13.900;2023-06-10T02:29:01;5.10;;;4.70;;
9737;SDS011;4908;47.446;13.900;2023-06-10T02:31:28;5.30;;;4.90;;
9737;SDS011;4908;47.446;13.900;2023-06-10T02:33:55;6.17;;;5.67;;
9737;SDS011;4908;47.446;13.900;2023-06-10T02:36:22;6.07;;;5.57;;
9737;SDS011;4908;47.446;13.900;2023-06-10T02:38:49;4.67;;;4.27;;
9737;SDS011;4908;47.446;13.900;2023-06-10T02:41:16;8.43;;;5.53;;
9737;SDS011;4908;47.446;13.900;2023-06-10T02:43:43;5.80;;;5.30;;
9737;SDS011;4908;47.446;13.900;2023-06-10T02:46:11;6.67;;;5.77;;
9737;SDS011;4908;47.446;13.900;2023-06-10T02:48:41;6.57;;;5.83;;
9737;SDS011;4908;47.446;13.900;2023-06-10T02:51:08;7.07;;;6.37;;
9737;SDS011;4908;47.446;13.900;2023-06-10T02:53:35;6.43;;;5.90;;
9737;SDS011;4908;47.446;13.900;2023-06-10T02:56:02;9.47;;;6.50;;
9737;SDS011;4908;47.446;13.900;2023-06-10T02:58:29;7.97;;;6.03;;
9737;SDS011;4908;47.446;13.900;2023-06-10T03:00:56;6.27;;;5.50;;
9737;SDS011;4908;47.446;13.900;2023-06-10T03:03:24;6.27;;;5.67;;
9737;SDS011;4908;47.446;13.900;2023-06-10T03:05:52;5.93;;;5.43;;
9737;SDS011;4908;47.446;13.900;2023-06-10T03:08:19;7.87;;;6.00;;
9737;SDS011;4908;47.446;13.900;2023-06-10T03:10:46;6.20;;;5.70;;
9737;SDS011;4908;47.446;13.900;2023-06-10T03:13:13;6.13;;;5.63;;
9737;SDS011;4908;47.446;13.900;2023-06-10T03:15:40;5.33;;;4.93;;
9737;SDS011;4908;47.446;13.900;2023-06-10T03:18:07;5.87;;;5.17;;
9737;SDS011;4908;47.446;13.900;2023-06-10T03:20:35;5.97;;;5.43;;
9737;SDS011;4908;47.446;13.900;2023-06-10T03:23:03;5.43;;;5.03;;
9737;SDS011;4908;47.446;13.900;2023-06-10T03:25:31;5.47;;;5.07;;
9737;SDS011;4908;47.446;13.900;2023-06-10T03:27:58;6.60;;;5.97;;
9737;SDS011;4908;47.446;13.900;2023-06-10T03:30:25;6.97;;;6.33;;
9737;SDS011;4908;47.446;13.900;2023-06-10T03:32:51;6.93;;;5.60;;
9737;SDS011;4908;47.446;13.900;2023-06-10T03:35:18;8.10;;;5.40;;
9737;SDS011;4908;47.446;13.900;2023-06-10T03:37:47;5.20;;;4.80;;
9737;SDS011;4908;47.446;13.900;2023-06-10T03:40:13;6.20;;;5.70;;
9737;SDS011;4908;47.446;13.900;2023-06-10T03:42:40;7.03;;;5.07;;
9737;SDS011;4908;47.446;13.900;2023-06-10T03:45:09;5.70;;;5.30;;
9737;SDS011;4908;47.446;13.900;2023-06-10T03:47:36;5.60;;;5.10;;
9737;SDS011;4908;47.446;13.900;2023-06-10T03:50:06;5.33;;;4.93;;
9737;SDS011;4908;47.446;13.900;2023-06-10T03:52:34;10.07;;;5.50;;
9737;SDS011;4908;47.446;13.900;2023-06-10T03:55:02;5.50;;;5.07;;
9737;SDS011;4908;47.446;13.900;2023-06-10T03:57:30;5.43;;;4.93;;
9737;SDS011;4908;47.446;13.900;2023-06-10T03:59:56;5.67;;;5.20;;
9737;SDS011;4908;47.446;13.900;2023-06-10T04:02:24;6.37;;;5.53;;
9737;SDS011;4908;47.446;13.900;2023-06-10T04:04:50;6.47;;;5.87;;
9737;SDS011;4908;47.446;13.900;2023-06-10T04:07:17;7.30;;;5.07;;
9737;SDS011;4908;47.446;13.900;2023-06-10T04:09:45;7.23;;;5.90;;
9737;SDS011;4908;47.446;13.900;2023-06-10T04:12:13;5.90;;;5.40;;
9737;SDS011;4908;47.446;13.900;2023-06-10T04:14:41;8.27;;;5.27;;
9737;SDS011;4908;47.446;13.900;2023-06-10T04:17:08;6.20;;;5.60;;
9737;SDS011;4908;47.446;13.900;2023-06-10T04:19:35;7.20;;;6.13;;
9737;SDS011;4908;47.446;13.900;2023-06-10T04:22:02;6.67;;;5.97;;
9737;SDS011;4908;47.446;13.900;2023-06-10T04:24:30;6.47;;;5.97;;
9737;SDS011;4908;47.446;13.900;2023-06-10T04:26:57;6.50;;;5.97;;
9737;SDS011;4908;47.446;13.900;2023-06-10T04:29:25;5.43;;;4.93;;
9737;SDS011;4908;47.446;13.900;2023-06-10T04:31:52;5.77;;;5.37;;
9737;SDS011;4908;47.446;13.900;2023-06-10T04:34:18;6.00;;;5.50;;
9737;SDS011;4908;47.446;13.900;2023-06-10T04:36:45;6.00;;;5.40;;
9737;SDS011;4908;47.446;13.900;2023-06-10T04:39:12;5.57;;;5.07;;
9737;SDS011;4908;47.446;13.900;2023-06-10T04:41:41;5.23;;;4.73;;
9737;SDS011;4908;47.446;13.900;2023-06-10T04:44:08;5.87;;;5.27;;
9737;SDS011;4908;47.446;13.900;2023-06-10T04:46:37;5.93;;;4.80;;
9737;SDS011;4908;47.446;13.900;2023-06-10T04:49:04;6.40;;;5.50;;
9737;SDS011;4908;47.446;13.900;2023-06-10T04:51:31;5.43;;;5.03;;
9737;SDS011;4908;47.446;13.900;2023-06-10T04:53:58;5.37;;;4.97;;
9737;SDS011;4908;47.446;13.900;2023-06-10T04:56:27;5.03;;;4.70;;
9737;SDS011;4908;47.446;13.900;2023-06-10T04:58:55;5.57;;;5.13;;
9737;SDS011;4908;47.446;13.900;2023-06-10T05:01:22;5.07;;;4.70;;
9737;SDS011;4908;47.446;13.900;2023-06-10T05:03:50;5.13;;;4.73;;
9737;SDS011;4908;47.446;13.900;2023-06-10T05:06:17;5.40;;;5.00;;
9737;SDS011;4908;47.446;13.900;2023-06-10T05:08:43;5.20;;;4.77;;
9737;SDS011;4908;47.446;13.900;2023-06-10T05:11:10;4.90;;;4.50;;
9737;SDS011;4908;47.446;13.900;2023-06-10T05:13:37;5.00;;;4.70;;
9737;SDS011;4908;47.446;13.900;2023-06-10T05:16:05;5.50;;;5.10;;
9737;SDS011;4908;47.446;13.900;2023-06-10T05:18:32;5.40;;;4.60;;
9737;SDS011;4908;47.446;13.900;2023-06-10T05:21:02;5.00;;;4.70;;
9737;SDS011;4908;47.446;13.900;2023-06-10T05:23:28;5.20;;;4.80;;
9737;SDS011;4908;47.446;13.900;2023-06-10T05:25:55;4.50;;;4.10;;
9737;SDS011;4908;47.446;13.900;2023-06-10T05:28:22;5.03;;;4.70;;
9737;SDS011;4908;47.446;13.900;2023-06-10T05:30:49;4.27;;;3.87;;
9737;SDS011;4908;47.446;13.900;2023-06-10T05:33:16;4.53;;;4.23;;
9737;SDS011;4908;47.446;13.900;2023-06-10T05:35:42;4.67;;;4.33;;
9737;SDS011;4908;47.446;13.900;2023-06-10T05:38:11;4.80;;;4.47;;
9737;SDS011;4908;47.446;13.900;2023-06-10T05:40:37;4.43;;;4.20;;
9737;SDS011;4908;47.446;13.900;2023-06-10T05:43:04;4.50;;;4.20;;
9737;SDS011;4908;47.446;13.900;2023-06-10T05:45:31;4.40;;;4.10;;
9737;SDS011;4908;47.446;13.900;2023-06-10T05:47:57;4.60;;;4.30;;
9737;SDS011;4908;47.446;13.900;2023-06-10T05:50:24;4.23;;;3.83;;
9737;SDS011;4908;47.446;13.900;2023-06-10T05:52:51;4.83;;;4.43;;
9737;SDS011;4908;47.446;13.900;2023-06-10T05:55:20;4.67;;;4.37;;
9737;SDS011;4908;47.446;13.900;2023-06-10T05:57:47;4.40;;;4.03;;
9737;SDS011;4908;47.446;13.900;2023-06-10T06:00:14;4.60;;;4.23;;
9737;SDS011;4908;47.446;13.900;2023-06-10T06:02:41;4.17;;;3.90;;
9737;SDS011;4908;47.446;13.900;2023-06-10T06:05:08;4.57;;;4.23;;
9737;SDS011;4908;47.446;13.900;2023-06-10T06:07:35;4.40;;;4.10;;
9737;SDS011;4908;47.446;13.900;2023-06-10T06:10:01;4.17;;;3.90;;
9737;SDS011;4908;47.446;13.900;2023-06-10T06:12:30;4.43;;;4.10;;
9737;SDS011;4908;47.446;13.900;2023-06-10T06:14:57;4.03;;;3.73;;
9737;SDS011;4908;47.446;13.900;2023-06-10T06:17:23;4.27;;;3.93;;
9737;SDS011;4908;47.446;13.900;2023-06-10T06:19:50;4.47;;;4.10;;
9737;SDS011;4908;47.446;13.900;2023-06-10T06:22:17;4.27;;;3.87;;
9737;SDS011;4908;47.446;13.900;2023-06-10T06:24:46;4.33;;;4.03;;
9737;SDS011;4908;47.446;13.900;2023-06-10T06:27:14;4.23;;;4.03;;
9737;SDS011;4908;47.446;13.900;2023-06-10T06:29:42;4.23;;;3.93;;
9737;SDS011;4908;47.446;13.900;2023-06-10T06:32:09;3.70;;;3.50;;
9737;SDS011;4908;47.446;13.900;2023-06-10T06:34:36;4.87;;;3.80;;
9737;SDS011;4908;47.446;13.900;2023-06-10T06:37:03;3.80;;;3.50;;
9737;SDS011;4908;47.446;13.900;2023-06-10T06:39:30;3.90;;;3.70;;
9737;SDS011;4908;47.446;13.900;2023-06-10T06:41:56;4.53;;;4.13;;
9737;SDS011;4908;47.446;13.900;2023-06-10T06:44:23;3.90;;;3.70;;
9737;SDS011;4908;47.446;13.900;2023-06-10T06:46:51;4.30;;;4.03;;
9737;SDS011;4908;47.446;13.900;2023-06-10T06:49:18;3.83;;;3.63;;
9737;SDS011;4908;47.446;13.900;2023-06-10T06:51:45;4.10;;;3.80;;
9737;SDS011;4908;47.446;13.900;2023-06-10T06:54:12;4.50;;;4.07;;
9737;SDS011;4908;47.446;13.900;2023-06-10T06:56:38;3.93;;;3.73;;
9737;SDS011;4908;47.446;13.900;2023-06-10T06:59:05;5.50;;;3.67;;
9737;SDS011;4908;47.446;13.900;2023-06-10T07:01:32;4.27;;;3.97;;
9737;SDS011;4908;47.446;13.900;2023-06-10T07:04:01;4.30;;;4.00;;
9737;SDS011;4908;47.446;13.900;2023-06-10T07:06:27;4.23;;;3.93;;
9737;SDS011;4908;47.446;13.900;2023-06-10T07:08:54;4.70;;;3.70;;
9737;SDS011;4908;47.446;13.900;2023-06-10T07:11:21;4.17;;;3.97;;
9737;SDS011;4908;47.446;13.900;2023-06-10T07:13:48;3.73;;;3.50;;
9737;SDS011;4908;47.446;13.900;2023-06-10T07:16:14;3.67;;;3.47;;
9737;SDS011;4908;47.446;13.900;2023-06-10T07:18:41;4.10;;;3.90;;
9737;SDS011;4908;47.446;13.900;2023-06-10T07:21:09;4.17;;;3.87;;
9737;SDS011;4908;47.446;13.900;2023-06-10T07:23:36;5.00;;;3.80;;
9737;SDS011;4908;47.446;13.900;2023-06-10T07:26:03;4.03;;;3.73;;
9737;SDS011;4908;47.446;13.900;2023-06-10T07:28:30;4.17;;;3.87;;
9737;SDS011;4908;47.446;13.900;2023-06-10T07:30:56;3.70;;;3.53;;
9737;SDS011;4908;47.446;13.900;2023-06-10T07:33:28;4.03;;;3.70;;
9737;SDS011;4908;47.446;13.900;2023-06-10T07:49:34;4.03;;;3.73;;
9737;SDS011;4908;47.446;13.900;2023-06-10T07:55:44;4.57;;;3.90;;
9737;SDS011;4908;47.446;13.900;2023-06-10T07:58:12;3.80;;;3.60;;
9737;SDS011;4908;47.446;13.900;2023-06-10T08:00:38;5.17;;;3.80;;
9737;SDS011;4908;47.446;13.900;2023-06-10T08:03:05;4.00;;;3.80;;
9737;SDS011;4908;47.446;13.900;2023-06-10T08:05:34;3.90;;;3.60;;
9737;SDS011;4908;47.446;13.900;2023-06-10T08:08:01;5.77;;;3.83;;
9737;SDS011;4908;47.446;13.900;2023-06-10T08:10:28;4.00;;;3.60;;
9737;SDS011;4908;47.446;13.900;2023-06-10T08:12:55;6.70;;;3.53;;
9737;SDS011;4908;47.446;13.900;2023-06-10T08:15:21;4.00;;;3.70;;
9737;SDS011;4908;47.446;13.900;2023-06-10T08:17:48;4.10;;;3.80;;
9737;SDS011;4908;47.446;13.900;2023-06-10T08:20:15;3.63;;;3.43;;
9737;SDS011;4908;47.446;13.900;2023-06-10T08:22:44;4.00;;;3.70;;
9737;SDS011;4908;47.446;13.900;2023-06-10T08:25:11;3.53;;;3.33;;
9737;SDS011;4908;47.446;13.900;2023-06-10T08:27:37;3.87;;;3.57;;
9737;SDS011;4908;47.446;13.900;2023-06-10T08:30:04;3.97;;;3.67;;
9737;SDS011;4908;47.446;13.900;2023-06-10T08:32:33;4.43;;;3.80;;
9737;SDS011;4908;47.446;13.900;2023-06-10T08:34:59;3.80;;;3.60;;
9737;SDS011;4908;47.446;13.900;2023-06-10T08:37:26;3.80;;;3.60;;
9737;SDS011;4908;47.446;13.900;2023-06-10T08:39:54;3.73;;;3.53;;
9737;SDS011;4908;47.446;13.900;2023-06-10T08:42:22;4.43;;;4.03;;
9737;SDS011;4908;47.446;13.900;2023-06-10T08:44:52;4.43;;;4.17;;
9737;SDS011;4908;47.446;13.900;2023-06-10T08:47:22;3.93;;;3.63;;
9737;SDS011;4908;47.446;13.900;2023-06-10T08:49:50;3.90;;;3.70;;
9737;SDS011;4908;47.446;13.900;2023-06-10T08:52:19;3.77;;;3.57;;
9737;SDS011;4908;47.446;13.900;2023-06-10T08:54:48;4.17;;;3.87;;
9737;SDS011;4908;47.446;13.900;2023-06-10T08:57:22;3.67;;;3.47;;
9737;SDS011;4908;47.446;13.900;2023-06-10T08:59:49;3.90;;;3.70;;
9737;SDS011;4908;47.446;13.900;2023-06-10T09:02:16;5.13;;;4.00;;
9737;SDS011;4908;47.446;13.900;2023-06-10T09:04:44;5.47;;;4.37;;
9737;SDS011;4908;47.446;13.900;2023-06-10T09:07:13;4.47;;;4.17;;
9737;SDS011;4908;47.446;13.900;2023-06-10T09:09:41;4.17;;;3.77;;
9737;SDS011;4908;47.446;13.900;2023-06-10T09:12:09;4.30;;;3.90;;
9737;SDS011;4908;47.446;13.900;2023-06-10T09:14:38;4.33;;;4.03;;
9737;SDS011;4908;47.446;13.900;2023-06-10T09:17:05;4.20;;;3.90;;
9737;SDS011;4908;47.446;13.900;2023-06-10T09:19:32;4.53;;;4.00;;
9737;SDS011;4908;47.446;13.900;2023-06-10T09:21:59;4.30;;;4.00;;
9737;SDS011;4908;47.446;13.900;2023-06-10T09:24:26;4.03;;;3.67;;
9737;SDS011;4908;47.446;13.900;2023-06-10T09:27:01;4.83;;;4.40;;
9737;SDS011;4908;47.446;13.900;2023-06-10T09:29:30;4.97;;;4.67;;
9737;SDS011;4908;47.446;13.900;2023-06-10T09:31:58;4.33;;;4.03;;
9737;SDS011;4908;47.446;13.900;2023-06-10T09:34:25;4.90;;;4.60;;
9737;SDS011;4908;47.446;13.900;2023-06-10T09:36:52;4.83;;;4.53;;
9737;SDS011;4908;47.446;13.900;2023-06-10T09:39:20;4.50;;;4.00;;
9737;SDS011;4908;47.446;13.900;2023-06-10T09:41:48;4.50;;;4.20;;
9737;SDS011;4908;47.446;13.900;2023-06-10T09:44:15;5.67;;;4.23;;
9737;SDS011;4908;47.446;13.900;2023-06-10T09:46:44;4.83;;;4.53;;
9737;SDS011;4908;47.446;13.900;2023-06-10T09:49:13;4.77;;;4.30;;
9737;SDS011;4908;47.446;13.900;2023-06-10T09:51:48;3.47;;;3.27;;
9737;SDS011;4908;47.446;13.900;2023-06-10T09:54:17;4.17;;;3.97;;
9737;SDS011;4908;47.446;13.900;2023-06-10T09:56:46;4.10;;;3.87;;
9737;SDS011;4908;47.446;13.900;2023-06-10T09:59:13;4.50;;;4.10;;
9737;SDS011;4908;47.446;13.900;2023-06-10T10:01:40;4.13;;;3.90;;
9737;SDS011;4908;47.446;13.900;2023-06-10T10:04:07;4.07;;;3.83;;
9737;SDS011;4908;47.446;13.900;2023-06-10T10:06:37;3.80;;;3.70;;
9737;SDS011;4908;47.446;13.900;2023-06-10T10:09:05;4.23;;;4.03;;
9737;SDS011;4908;47.446;13.900;2023-06-10T10:11:32;4.23;;;4.03;;
9737;SDS011;4908;47.446;13.900;2023-06-10T10:14:01;3.60;;;3.50;;
9737;SDS011;4908;47.446;13.900;2023-06-10T10:16:32;4.33;;;3.93;;
9737;SDS011;4908;47.446;13.900;2023-06-10T10:19:04;4.13;;;3.93;;
9737;SDS011;4908;47.446;13.900;2023-06-10T10:21:35;3.83;;;3.63;;
9737;SDS011;4908;47.446;13.900;2023-06-10T10:24:09;4.43;;;4.23;;
9737;SDS011;4908;47.446;13.900;2023-06-10T10:26:42;4.00;;;3.80;;
9737;SDS011;4908;47.446;13.900;2023-06-10T10:29:14;3.80;;;3.60;;
9737;SDS011;4908;47.446;13.900;2023-06-10T10:31:46;4.00;;;3.70;;
9737;SDS011;4908;47.446;13.900;2023-06-10T10:34:16;4.30;;;4.00;;
9737;SDS011;4908;47.446;13.900;2023-06-10T10:36:49;5.63;;;3.63;;
9737;SDS011;4908;47.446;13.900;2023-06-10T10:39:16;3.80;;;3.50;;
9737;SDS011;4908;47.446;13.900;2023-06-10T10:41:44;4.10;;;3.90;;
9737;SDS011;4908;47.446;13.900;2023-06-10T10:44:13;3.70;;;3.43;;
9737;SDS011;4908;47.446;13.900;2023-06-10T10:46:43;4.07;;;3.77;;
9737;SDS011;4908;47.446;13.900;2023-06-10T10:49:11;4.13;;;3.93;;
9737;SDS011;4908;47.446;13.900;2023-06-10T10:54:33;3.80;;;3.60;;
9737;SDS011;4908;47.446;13.900;2023-06-10T10:57:09;3.43;;;3.33;;
9737;SDS011;4908;47.446;13.900;2023-06-10T10:59:50;3.10;;;3.00;;
9737;SDS011;4908;47.446;13.900;2023-06-10T11:05:08;3.57;;;3.37;;
9737;SDS011;4908;47.446;13.900;2023-06-10T11:07:37;3.47;;;3.27;;
9737;SDS011;4908;47.446;13.900;2023-06-10T11:10:08;3.60;;;3.50;;
9737;SDS011;4908;47.446;13.900;2023-06-10T11:12:40;3.83;;;3.60;;
9737;SDS011;4908;47.446;13.900;2023-06-10T11:15:08;3.67;;;3.37;;
9737;SDS011;4908;47.446;13.900;2023-06-10T11:17:35;3.60;;;3.40;;
9737;SDS011;4908;47.446;13.900;2023-06-10T11:20:02;3.50;;;3.30;;
9737;SDS011;4908;47.446;13.900;2023-06-10T11:22:30;4.00;;;3.70;;
9737;SDS011;4908;47.446;13.900;2023-06-10T11:24:58;3.90;;;3.70;;
9737;SDS011;4908;47.446;13.900;2023-06-10T11:27:25;3.83;;;3.63;;
9737;SDS011;4908;47.446;13.900;2023-06-10T11:29:58;3.57;;;3.37;;
9737;SDS011;4908;47.446;13.900;2023-06-10T11:32:44;3.77;;;3.57;;
9737;SDS011;4908;47.446;13.900;2023-06-10T11:35:11;4.27;;;4.00;;
9737;SDS011;4908;47.446;13.900;2023-06-10T11:37:38;3.33;;;3.13;;
9737;SDS011;4908;47.446;13.900;2023-06-10T11:40:08;3.50;;;3.33;;
9737;SDS011;4908;47.446;13.900;2023-06-10T11:42:38;3.90;;;3.70;;
9737;SDS011;4908;47.446;13.900;2023-06-10T11:45:06;3.13;;;3.03;;
9737;SDS011;4908;47.446;13.900;2023-06-10T11:47:34;3.30;;;3.20;;
9737;SDS011;4908;47.446;13.900;2023-06-10T11:50:01;3.73;;;3.43;;
9737;SDS011;4908;47.446;13.900;2023-06-10T11:52:28;3.50;;;3.30;;
9737;SDS011;4908;47.446;13.900;2023-06-10T11:54:57;3.53;;;3.40;;
9737;SDS011;4908;47.446;13.900;2023-06-10T11:57:25;3.83;;;3.47;;
9737;SDS011;4908;47.446;13.900;2023-06-10T11:59:52;5.00;;;3.70;;
9737;SDS011;4908;47.446;13.900;2023-06-10T12:02:18;4.50;;;4.10;;
9737;SDS011;4908;47.446;13.900;2023-06-10T12:04:47;3.90;;;3.70;;
9737;SDS011;4908;47.446;13.900;2023-06-10T12:07:17;4.00;;;3.70;;
9737;SDS011;4908;47.446;13.900;2023-06-10T12:09:45;3.97;;;3.77;;
9737;SDS011;4908;47.446;13.900;2023-06-10T12:12:11;4.00;;;3.80;;
9737;SDS011;4908;47.446;13.900;2023-06-10T12:14:52;4.63;;;4.23;;
9737;SDS011;4908;47.446;13.900;2023-06-10T12:17:21;3.83;;;3.63;;
9737;SDS011;4908;47.446;13.900;2023-06-10T12:19:49;4.97;;;4.23;;
9737;SDS011;4908;47.446;13.900;2023-06-10T12:22:16;5.00;;;4.67;;
9737;SDS011;4908;47.446;13.900;2023-06-10T12:24:44;4.30;;;4.10;;
9737;SDS011;4908;47.446;13.900;2023-06-10T12:27:11;4.80;;;4.50;;
9737;SDS011;4908;47.446;13.900;2023-06-10T12:29:39;4.10;;;3.90;;
9737;SDS011;4908;47.446;13.900;2023-06-10T12:32:08;4.00;;;3.70;;
9737;SDS011;4908;47.446;13.900;2023-06-10T12:34:36;3.53;;;3.33;;
9737;SDS011;4908;47.446;13.900;2023-06-10T12:37:04;4.43;;;4.03;;
9737;SDS011;4908;47.446;13.900;2023-06-10T12:39:33;5.40;;;5.10;;
9737;SDS011;4908;47.446;13.900;2023-06-10T12:42:00;4.53;;;4.23;;
9737;SDS011;4908;47.446;13.900;2023-06-10T12:44:31;4.10;;;3.90;;
9737;SDS011;4908;47.446;13.900;2023-06-10T12:46:59;3.83;;;3.63;;
9737;SDS011;4908;47.446;13.900;2023-06-10T12:49:27;4.07;;;3.87;;
9737;SDS011;4908;47.446;13.900;2023-06-10T12:51:54;3.70;;;3.40;;
9737;SDS011;4908;47.446;13.900;2023-06-10T12:54:21;3.60;;;3.50;;
9737;SDS011;4908;47.446;13.900;2023-06-10T12:56:48;4.10;;;3.90;;
9737;SDS011;4908;47.446;13.900;2023-06-10T12:59:15;3.90;;;3.70;;
9737;SDS011;4908;47.446;13.900;2023-06-10T13:01:42;3.87;;;3.57;;
9737;SDS011;4908;47.446;13.900;2023-06-10T13:04:08;3.73;;;3.53;;
9737;SDS011;4908;47.446;13.900;2023-06-10T13:06:37;4.00;;;3.70;;
9737;SDS011;4908;47.446;13.900;2023-06-10T13:09:05;4.47;;;4.13;;
9737;SDS011;4908;47.446;13.900;2023-06-10T13:11:33;3.83;;;3.60;;
9737;SDS011;4908;47.446;13.900;2023-06-10T13:14:01;4.40;;;4.13;;
9737;SDS011;4908;47.446;13.900;2023-06-10T13:16:29;4.20;;;3.93;;
9737;SDS011;4908;47.446;13.900;2023-06-10T13:18:57;4.30;;;3.93;;
9737;SDS011;4908;47.446;13.900;2023-06-10T13:21:24;4.13;;;3.83;;
9737;SDS011;4908;47.446;13.900;2023-06-10T13:23:52;4.30;;;4.00;;
9737;SDS011;4908;47.446;13.900;2023-06-10T13:26:19;4.53;;;4.23;;
9737;SDS011;4908;47.446;13.900;2023-06-10T13:28:46;4.10;;;3.90;;
9737;SDS011;4908;47.446;13.900;2023-06-10T13:31:13;3.70;;;3.50;;
9737;SDS011;4908;47.446;13.900;2023-06-10T13:33:40;4.13;;;3.90;;
9737;SDS011;4908;47.446;13.900;2023-06-10T13:36:08;4.17;;;3.87;;
9737;SDS011;4908;47.446;13.900;2023-06-10T13:38:37;4.00;;;3.77;;
9737;SDS011;4908;47.446;13.900;2023-06-10T13:41:07;3.57;;;3.30;;
9737;SDS011;4908;47.446;13.900;2023-06-10T13:43:35;4.20;;;3.80;;
9737;SDS011;4908;47.446;13.900;2023-06-10T13:46:02;4.20;;;4.00;;
9737;SDS011;4908;47.446;13.900;2023-06-10T13:48:28;4.60;;;4.33;;
9737;SDS011;4908;47.446;13.900;2023-06-10T13:50:56;4.03;;;3.83;;
9737;SDS011;4908;47.446;13.900;2023-06-10T13:53:23;4.20;;;4.00;;
9737;SDS011;4908;47.446;13.900;2023-06-10T13:55:49;4.20;;;4.00;;
9737;SDS011;4908;47.446;13.900;2023-06-10T13:58:18;3.60;;;3.40;;
9737;SDS011;4908;47.446;13.900;2023-06-10T14:00:46;3.60;;;3.47;;
9737;SDS011;4908;47.446;13.900;2023-06-10T14:03:13;3.50;;;3.20;;
9737;SDS011;4908;47.446;13.900;2023-06-10T14:05:40;3.50;;;3.30;;
9737;SDS011;4908;47.446;13.900;2023-06-10T14:08:08;3.37;;;3.17;;
9737;SDS011;4908;47.446;13.900;2023-06-10T14:10:35;3.17;;;3.07;;
9737;SDS011;4908;47.446;13.900;2023-06-10T14:13:01;2.87;;;2.77;;
9737;SDS011;4908;47.446;13.900;2023-06-10T14:15:29;3.03;;;2.93;;
9737;SDS011;4908;47.446;13.900;2023-06-10T14:17:57;2.83;;;2.73;;
9737;SDS011;4908;47.446;13.900;2023-06-10T14:20:24;2.90;;;2.80;;
9737;SDS011;4908;47.446;13.900;2023-06-10T14:22:51;3.53;;;2.90;;
9737;SDS011;4908;47.446;13.900;2023-06-10T14:25:18;2.93;;;2.83;;
9737;SDS011;4908;47.446;13.900;2023-06-10T14:27:45;2.53;;;2.43;;
9737;SDS011;4908;47.446;13.900;2023-06-10T14:30:13;2.60;;;2.40;;
9737;SDS011;4908;47.446;13.900;2023-06-10T14:32:42;2.50;;;2.40;;
9737;SDS011;4908;47.446;13.900;2023-06-10T14:35:09;2.70;;;2.60;;
9737;SDS011;4908;47.446;13.900;2023-06-10T14:37:36;2.23;;;2.20;;
9737;SDS011;4908;47.446;13.900;2023-06-10T14:40:03;2.67;;;2.57;;
9737;SDS011;4908;47.446;13.900;2023-06-10T14:42:30;2.77;;;2.57;;
9737;SDS011;4908;47.446;13.900;2023-06-10T14:44:58;2.40;;;2.30;;
9737;SDS011;4908;47.446;13.900;2023-06-10T14:47:24;2.70;;;2.60;;
9737;SDS011;4908;47.446;13.900;2023-06-10T14:49:53;2.30;;;2.20;;
9737;SDS011;4908;47.446;13.900;2023-06-10T14:52:19;2.73;;;2.63;;
9737;SDS011;4908;47.446;13.900;2023-06-10T14:54:46;2.27;;;2.17;;
9737;SDS011;4908;47.446;13.900;2023-06-10T14:57:13;2.60;;;2.50;;
9737;SDS011;4908;47.446;13.900;2023-06-10T14:59:40;2.23;;;2.13;;
9737;SDS011;4908;47.446;13.900;2023-06-10T15:02:06;2.40;;;2.30;;
9737;SDS011;4908;47.446;13.900;2023-06-10T15:04:33;2.60;;;2.50;;
9737;SDS011;4908;47.446;13.900;2023-06-10T15:07:01;2.77;;;2.57;;
9737;SDS011;4908;47.446;13.900;2023-06-10T15:09:28;2.70;;;2.40;;
9737;SDS011;4908;47.446;13.900;2023-06-10T15:11:55;2.60;;;2.50;;
9737;SDS011;4908;47.446;13.900;2023-06-10T15:14:22;2.60;;;2.50;;
9737;SDS011;4908;47.446;13.900;2023-06-10T15:16:48;2.90;;;2.70;;
9737;SDS011;4908;47.446;13.900;2023-06-10T15:19:15;3.17;;;2.87;;
9737;SDS011;4908;47.446;13.900;2023-06-10T15:21:42;4.40;;;2.90;;
9737;SDS011;4908;47.446;13.900;2023-06-10T15:24:10;2.83;;;2.73;;
9737;SDS011;4908;47.446;13.900;2023-06-10T15:26:37;2.73;;;2.50;;